Time;durP1;ratioP1;P1;durP2;ratioP2;P2;SDS_P1;SDS_P2;PMS_P1;PMS_P2;Temp;Humidity;BMP_temperature;BMP_pressure;BME280_temperature;BME280_humidity;BME280_pressure;Samples;Min_cycle;Max_cycle;Signal;HPM_P1;HPM_P2
2022/09/07 00:00:56;;;;;;;21.90;16.67;;;20.30;99.90;;;;;;5012953;28;20057;-63
2022/09/07 00:03:21;;;;;;;21.85;17.67;;;20.30;99.90;;;;;;5013072;28;20424;-62
2022/09/07 00:05:49;;;;;;;19.55;17.45;;;20.20;99.90;;;;;;5013318;28;20057;-63
2022/09/07 00:08:17;;;;;;;21.77;19.65;;;20.20;99.90;;;;;;5023957;28;20371;-62
2022/09/07 00:10:52;;;;;;;24.17;21.77;;;20.20;99.90;;;;;;5013214;28;20048;-61
2022/09/07 00:13:18;;;;;;;24.85;21.90;;;20.10;99.90;;;;;;5012784;28;20117;-61
2022/09/07 00:15:44;;;;;;;24.95;22.35;;;20.00;99.90;;;;;;4995675;28;20188;-61
2022/09/07 00:18:09;;;;;;;26.35;23.65;;;20.00;99.90;;;;;;5025853;28;20041;-61
2022/09/07 00:20:35;;;;;;;24.80;21.63;;;20.00;99.90;;;;;;5013185;28;20570;-61
2022/09/07 00:23:00;;;;;;;27.75;25.00;;;19.90;99.90;;;;;;5012738;28;20041;-61
2022/09/07 00:25:26;;;;;;;30.88;27.23;;;19.90;99.90;;;;;;5012759;28;20033;-62
2022/09/07 00:27:52;;;;;;;35.15;28.25;;;19.80;99.90;;;;;;5017644;28;20088;-61
2022/09/07 00:30:17;;;;;;;38.05;27.65;;;19.80;99.90;;;;;;5013042;28;20125;-63
2022/09/07 00:32:43;;;;;;;33.75;29.42;;;19.70;99.90;;;;;;5012230;28;20197;-62
2022/09/07 00:35:09;;;;;;;33.72;27.77;;;19.60;99.90;;;;;;5012970;28;20046;-62
2022/09/07 00:37:34;;;;;;;32.75;28.30;;;19.60;99.90;;;;;;5018844;28;20049;-62
2022/09/07 00:40:00;;;;;;;31.60;28.17;;;19.50;99.90;;;;;;4995259;28;20103;-63
2022/09/07 00:42:26;;;;;;;29.85;26.42;;;19.50;99.90;;;;;;5012426;28;20150;-63
2022/09/07 00:45:05;;;;;;;25.95;23.17;;;19.50;99.90;;;;;;4995423;28;20088;-62
2022/09/07 00:48:03;;;;;;;27.77;23.27;;;19.50;99.90;;;;;;5019729;28;20104;-61
2022/09/07 00:50:39;;;;;;;21.25;16.77;;;19.50;99.90;;;;;;4989559;28;20081;-63
2022/09/07 00:53:14;;;;;;;17.88;15.27;;;19.40;99.90;;;;;;4994928;28;20200;-62
2022/09/07 00:55:43;;;;;;;11.77;7.95;;;19.30;99.90;;;;;;5012644;28;20060;-63
2022/09/07 00:58:09;;;;;;;11.85;6.90;;;19.20;99.90;;;;;;5004077;28;20033;-62
2022/09/07 01:00:35;;;;;;;9.70;5.57;;;19.10;99.90;;;;;;4995118;28;20041;-62
2022/09/07 01:03:03;;;;;;;6.70;3.42;;;19.00;99.90;;;;;;4994459;28;20049;-62
2022/09/07 01:05:35;;;;;;;5.10;2.13;;;18.90;99.90;;;;;;5012224;28;20652;-62
2022/09/07 01:08:01;;;;;;;5.63;1.60;;;18.70;99.90;;;;;;5005460;28;20045;-62
2022/09/07 01:10:31;;;;;;;4.00;1.35;;;18.60;99.90;;;;;;4995246;28;20418;-62
2022/09/07 01:12:58;;;;;;;2.83;1.20;;;18.40;99.90;;;;;;5012147;28;20045;-62
2022/09/07 01:15:33;;;;;;;4.47;1.50;;;18.30;99.90;;;;;;5012079;28;20407;-63
2022/09/07 01:18:17;;;;;;;5.70;1.20;;;18.00;99.90;;;;;;5023332;28;20052;-63
2022/09/07 01:21:11;;;;;;;2.40;1.20;;;18.00;99.90;;;;;;4999512;28;20121;-62
2022/09/07 01:24:00;;;;;;;2.13;1.10;;;17.80;99.90;;;;;;4994642;28;20042;-61
2022/09/07 01:26:37;;;;;;;2.60;1.00;;;17.80;99.90;;;;;;5011962;28;20658;-61
2022/09/07 01:29:27;;;;;;;1.80;0.80;;;17.70;99.90;;;;;;5015855;28;20056;-61
2022/09/07 01:32:14;;;;;;;1.65;1.30;;;17.80;99.90;;;;;;5011674;28;20524;-61
2022/09/07 01:34:45;;;;;;;1.65;1.00;;;17.90;99.90;;;;;;4994643;28;20034;-62
2022/09/07 01:37:25;;;;;;;2.47;1.50;;;17.80;99.90;;;;;;4998636;28;20038;-62
2022/09/07 01:40:35;;;;;;;2.20;1.10;;;17.90;99.90;;;;;;4994628;28;20439;-61
2022/09/07 01:43:19;;;;;;;2.63;1.00;;;18.00;99.90;;;;;;4989778;28;20048;-61
2022/09/07 01:45:47;;;;;;;2.45;1.00;;;18.00;99.90;;;;;;5012208;28;20034;-61
2022/09/07 01:48:16;;;;;;;1.67;1.20;;;18.10;99.90;;;;;;4996619;28;20066;-61
2022/09/07 01:50:45;;;;;;;2.67;1.30;;;18.20;99.90;;;;;;4986752;28;20038;-61
2022/09/07 01:53:27;;;;;;;2.63;1.40;;;18.20;99.90;;;;;;5011266;28;20348;-61
2022/09/07 01:56:08;;;;;;;4.28;1.60;;;18.20;99.90;;;;;;5012005;28;20034;-61
2022/09/07 01:58:43;;;;;;;4.32;1.60;;;18.20;99.90;;;;;;5022293;28;20101;-60
2022/09/07 02:01:19;;;;;;;2.97;1.30;;;18.20;99.90;;;;;;4997476;28;20128;-62
2022/09/07 02:03:49;;;;;;;5.20;1.80;;;18.30;99.90;;;;;;4985906;28;20045;-61
2022/09/07 02:06:18;;;;;;;4.07;1.88;;;18.30;99.90;;;;;;4998450;28;20056;-61
2022/09/07 02:08:50;;;;;;;3.53;1.80;;;18.30;99.90;;;;;;5025604;28;20463;-61
2022/09/07 02:11:20;;;;;;;3.50;2.10;;;18.30;99.90;;;;;;5015204;28;20125;-62
2022/09/07 02:14:17;;;;;;;3.97;2.20;;;18.30;99.90;;;;;;4981730;28;20034;-61
2022/09/07 02:16:56;;;;;;;4.07;2.40;;;18.30;99.90;;;;;;5015855;28;20336;-61
2022/09/07 02:19:25;;;;;;;2.95;2.03;;;18.40;99.90;;;;;;4988044;28;20502;-61
2022/09/07 02:21:58;;;;;;;3.70;2.60;;;18.30;99.90;;;;;;5014623;28;20050;-61
2022/09/07 02:24:38;;;;;;;4.82;2.60;;;18.40;99.90;;;;;;5015090;28;20529;-62
2022/09/07 02:27:09;;;;;;;5.07;2.80;;;18.40;99.90;;;;;;5000479;28;20485;-61
2022/09/07 02:29:37;;;;;;;2.90;2.47;;;18.30;99.90;;;;;;5001876;28;20033;-60
2022/09/07 02:32:03;;;;;;;6.45;3.08;;;18.30;99.90;;;;;;4997885;28;20076;-61
2022/09/07 02:34:29;;;;;;;5.53;3.08;;;18.30;99.90;;;;;;4997910;28;20116;-61
2022/09/07 02:36:58;;;;;;;4.57;2.47;;;18.30;99.90;;;;;;5006616;28;20045;-61
2022/09/07 02:39:24;;;;;;;4.15;2.90;;;18.40;99.90;;;;;;4998299;28;20111;-62
2022/09/07 02:41:50;;;;;;;4.78;2.67;;;18.40;99.90;;;;;;4998081;28;20440;-62
2022/09/07 02:44:22;;;;;;;5.57;2.90;;;18.30;99.90;;;;;;4997804;28;20045;-62
2022/09/07 02:47:09;;;;;;;5.20;3.03;;;18.30;99.90;;;;;;4998025;28;20042;-62
2022/09/07 02:49:53;;;;;;;4.53;2.90;;;18.40;99.90;;;;;;4997611;28;20054;-61
2022/09/07 02:52:48;;;;;;;4.97;3.20;;;18.40;99.90;;;;;;4997416;28;20100;-63
2022/09/07 02:55:14;;;;;;;3.13;2.70;;;18.30;99.90;;;;;;4997950;28;20050;-62
2022/09/07 02:58:05;;;;;;;6.40;2.90;;;18.40;99.90;;;;;;4994823;28;20053;-62
2022/09/07 03:00:40;;;;;;;4.15;3.13;;;18.40;99.90;;;;;;4996758;28;20054;-61
2022/09/07 03:03:41;;;;;;;6.32;2.78;;;18.30;99.90;;;;;;5013728;28;20061;-61
2022/09/07 03:06:23;;;;;;;4.65;2.95;;;18.30;99.90;;;;;;4997228;28;20041;-61
2022/09/07 03:08:54;;;;;;;3.90;2.85;;;18.30;99.90;;;;;;5015049;28;20042;-61
2022/09/07 03:11:20;;;;;;;4.57;2.95;;;18.20;99.90;;;;;;4996884;28;20068;-62
2022/09/07 03:13:46;;;;;;;6.88;3.28;;;18.20;99.90;;;;;;4997048;28;20406;-61
2022/09/07 03:16:13;;;;;;;4.78;2.88;;;18.10;99.90;;;;;;5014187;28;20038;-61
2022/09/07 03:18:39;;;;;;;5.07;3.10;;;18.10;99.90;;;;;;5025442;28;20026;-61
2022/09/07 03:21:05;;;;;;;3.50;2.67;;;18.00;99.90;;;;;;4980337;28;20054;-61
2022/09/07 03:23:30;;;;;;;5.60;3.30;;;17.90;99.90;;;;;;5014272;28;20037;-61
2022/09/07 03:25:56;;;;;;;5.82;3.72;;;17.90;99.90;;;;;;4997042;28;20490;-61
2022/09/07 03:28:22;;;;;;;6.10;3.25;;;17.90;99.90;;;;;;5014870;28;20649;-61
2022/09/07 03:30:47;;;;;;;5.25;3.20;;;17.80;99.90;;;;;;5010296;28;20037;-60
2022/09/07 03:33:14;;;;;;;4.60;3.17;;;17.80;99.90;;;;;;5014116;28;20033;-61
2022/09/07 03:35:42;;;;;;;6.30;3.78;;;17.80;99.90;;;;;;5014106;28;20091;-61
2022/09/07 03:38:08;;;;;;;5.43;3.40;;;17.80;99.90;;;;;;4998067;28;20224;-61
2022/09/07 03:40:33;;;;;;;4.50;3.40;;;17.70;99.90;;;;;;4989346;28;20383;-62
2022/09/07 03:42:59;;;;;;;4.47;3.42;;;17.70;99.90;;;;;;5013726;28;20077;-61
2022/09/07 03:45:24;;;;;;;4.88;3.58;;;17.70;99.90;;;;;;4980453;28;20378;-62
2022/09/07 03:47:50;;;;;;;5.25;3.58;;;17.70;99.90;;;;;;4986436;28;20037;-62
2022/09/07 03:50:16;;;;;;;5.07;3.78;;;17.70;99.90;;;;;;5013864;28;20049;-63
2022/09/07 03:52:41;;;;;;;7.35;3.85;;;17.70;99.90;;;;;;5013276;28;20591;-61
2022/09/07 03:55:07;;;;;;;6.45;4.10;;;17.60;99.90;;;;;;5009822;28;20030;-61
2022/09/07 03:57:33;;;;;;;5.55;4.20;;;17.60;99.90;;;;;;5002646;28;20026;-61
2022/09/07 03:59:59;;;;;;;6.05;4.60;;;17.60;99.90;;;;;;4981452;28;20038;-61
2022/09/07 04:02:24;;;;;;;6.30;4.82;;;17.60;99.90;;;;;;5012837;28;20053;-61
2022/09/07 04:04:50;;;;;;;6.60;4.97;;;17.60;99.90;;;;;;4996079;28;20042;-62
2022/09/07 04:07:15;;;;;;;5.82;4.80;;;17.60;99.90;;;;;;5000095;28;20137;-62
2022/09/07 04:09:41;;;;;;;6.80;4.70;;;17.60;99.90;;;;;;5001437;28;20069;-61
2022/09/07 04:12:07;;;;;;;6.97;4.97;;;17.60;99.90;;;;;;4995685;28;20045;-61
2022/09/07 04:14:33;;;;;;;6.25;4.47;;;17.70;99.90;;;;;;4996375;28;20053;-61
2022/09/07 04:16:58;;;;;;;5.43;4.68;;;17.70;99.90;;;;;;4995390;28;20432;-62
2022/09/07 04:19:24;;;;;;;6.05;4.90;;;17.80;99.90;;;;;;4995664;28;20478;-61
2022/09/07 04:21:50;;;;;;;8.48;5.00;;;17.80;99.90;;;;;;5012301;28;20029;-63
2022/09/07 04:24:16;;;;;;;7.60;5.88;;;17.80;99.90;;;;;;5013022;28;20046;-62
2022/09/07 04:26:43;;;;;;;6.68;4.78;;;17.80;99.90;;;;;;4995869;28;20125;-62
2022/09/07 04:29:10;;;;;;;6.43;5.07;;;17.80;99.90;;;;;;5013138;28;20486;-61
2022/09/07 04:31:36;;;;;;;8.25;5.10;;;17.80;99.90;;;;;;4995541;28;20267;-61
2022/09/07 04:34:02;;;;;;;7.00;4.70;;;17.80;99.90;;;;;;5012850;28;20471;-62
2022/09/07 04:36:28;;;;;;;5.88;4.70;;;17.80;99.90;;;;;;4995690;28;20056;-63
2022/09/07 04:38:58;;;;;;;7.18;5.28;;;17.80;99.90;;;;;;5016931;28;20443;-63
2022/09/07 04:41:26;;;;;;;7.75;5.13;;;17.80;99.90;;;;;;4994939;28;20033;-63
2022/09/07 04:43:54;;;;;;;7.53;5.13;;;17.80;99.90;;;;;;4995441;28;20037;-62
2022/09/07 04:46:22;;;;;;;9.65;5.53;;;17.90;99.90;;;;;;4979199;28;20478;-63
2022/09/07 04:48:50;;;;;;;6.88;5.25;;;17.90;99.90;;;;;;4995787;28;20045;-62
2022/09/07 04:51:16;;;;;;;8.07;5.70;;;18.00;99.90;;;;;;4995212;28;20041;-61
2022/09/07 04:53:42;;;;;;;8.88;7.00;;;18.10;99.90;;;;;;4995277;28;20041;-62
2022/09/07 04:56:07;;;;;;;8.63;7.13;;;18.10;99.90;;;;;;5020316;28;20033;-62
2022/09/07 04:58:35;;;;;;;8.73;7.65;;;18.10;99.90;;;;;;5029455;28;20534;-61
2022/09/07 05:01:02;;;;;;;8.50;7.70;;;18.10;99.90;;;;;;5012235;28;20048;-63
2022/09/07 05:03:33;;;;;;;10.63;9.27;;;18.10;99.90;;;;;;5012215;28;20477;-61
2022/09/07 05:06:03;;;;;;;11.60;10.50;;;18.20;99.90;;;;;;5013420;28;20447;-61
2022/09/07 05:08:29;;;;;;;11.02;9.88;;;18.20;99.90;;;;;;5007289;28;20576;-61
2022/09/07 05:10:58;;;;;;;10.43;9.32;;;18.20;99.90;;;;;;5006669;28;20227;-62
2022/09/07 05:13:24;;;;;;;11.95;10.68;;;18.20;99.90;;;;;;5025129;28;20050;-63
2022/09/07 05:15:50;;;;;;;12.27;11.18;;;18.20;99.90;;;;;;5010837;28;20041;-61
2022/09/07 05:18:16;;;;;;;13.20;11.90;;;18.30;99.90;;;;;;5009073;28;20041;-61
2022/09/07 05:20:41;;;;;;;16.25;14.50;;;18.30;99.90;;;;;;5010075;28;20045;-63
2022/09/07 05:23:07;;;;;;;15.57;13.98;;;18.20;99.90;;;;;;5018404;28;20141;-61
2022/09/07 05:25:33;;;;;;;16.17;14.48;;;18.30;99.90;;;;;;4995108;28;20507;-61
2022/09/07 05:27:58;;;;;;;17.38;15.70;;;18.40;99.90;;;;;;5013126;28;20396;-62
2022/09/07 05:30:24;;;;;;;17.55;15.75;;;18.30;99.90;;;;;;5012872;28;20045;-61
2022/09/07 05:32:51;;;;;;;17.52;15.55;;;18.40;99.90;;;;;;5008879;28;20043;-60
2022/09/07 05:35:18;;;;;;;20.70;18.52;;;18.30;99.90;;;;;;4998909;28;20065;-60
2022/09/07 05:37:50;;;;;;;19.23;17.17;;;18.30;99.90;;;;;;5005629;28;20049;-60
2022/09/07 05:40:16;;;;;;;19.50;17.33;;;18.30;99.90;;;;;;5013416;28;20072;-60
2022/09/07 05:42:42;;;;;;;18.38;16.63;;;18.30;99.90;;;;;;5000141;28;20046;-60
2022/09/07 05:45:08;;;;;;;18.38;16.45;;;18.40;99.90;;;;;;4995635;28;20049;-60
2022/09/07 05:47:36;;;;;;;19.52;17.45;;;18.40;99.90;;;;;;5016275;28;20022;-60
2022/09/07 05:50:03;;;;;;;21.42;19.33;;;18.40;99.90;;;;;;5015043;28;20533;-60
2022/09/07 05:52:29;;;;;;;22.92;20.45;;;18.40;99.90;;;;;;5015549;28;20395;-60
2022/09/07 05:54:54;;;;;;;21.88;19.70;;;18.30;99.90;;;;;;4998179;28;20049;-61
2022/09/07 05:57:20;;;;;;;23.63;20.13;;;18.30;99.90;;;;;;5016570;28;20184;-63
2022/09/07 05:59:46;;;;;;;24.80;22.27;;;18.40;99.90;;;;;;5001561;28;20054;-61
2022/09/07 06:02:14;;;;;;;25.00;22.50;;;18.30;99.90;;;;;;5015131;28;20073;-62
2022/09/07 06:04:41;;;;;;;26.42;23.73;;;18.30;99.90;;;;;;5015313;28;20038;-61
2022/09/07 06:07:09;;;;;;;27.85;24.85;;;18.30;99.90;;;;;;4998309;28;20041;-61
2022/09/07 06:09:35;;;;;;;26.80;24.10;;;18.30;99.90;;;;;;5007171;28;20037;-61
2022/09/07 06:12:04;;;;;;;28.02;25.08;;;18.30;99.90;;;;;;5008945;28;20046;-62
2022/09/07 06:14:30;;;;;;;27.77;24.98;;;18.30;99.90;;;;;;5004602;28;20081;-61
2022/09/07 06:16:56;;;;;;;27.13;24.27;;;18.40;99.90;;;;;;5021510;28;20447;-61
2022/09/07 06:19:22;;;;;;;28.38;25.45;;;18.40;99.90;;;;;;5016370;28;20088;-62
2022/09/07 06:21:47;;;;;;;26.40;23.77;;;18.40;99.90;;;;;;4981211;28;20046;-61
2022/09/07 06:24:13;;;;;;;26.23;23.42;;;18.40;99.90;;;;;;4997809;28;20128;-62
2022/09/07 06:26:39;;;;;;;25.33;22.67;;;18.40;99.90;;;;;;5020219;28;20402;-61
2022/09/07 06:29:04;;;;;;;26.42;23.42;;;18.50;99.90;;;;;;5012564;23;20050;-61
2022/09/07 06:31:30;;;;;;;25.85;23.00;;;18.50;99.90;;;;;;5012295;28;20652;-61
2022/09/07 06:33:56;;;;;;;25.42;22.75;;;18.40;99.90;;;;;;4997910;28;20397;-61
2022/09/07 06:36:26;;;;;;;25.63;21.83;;;18.50;99.90;;;;;;5014589;28;20034;-61
2022/09/07 06:38:53;;;;;;;24.23;21.02;;;18.40;99.90;;;;;;5010872;28;20048;-61
2022/09/07 06:41:26;;;;;;;23.45;20.40;;;18.40;99.90;;;;;;5014847;28;20425;-61
2022/09/07 06:43:53;;;;;;;20.95;18.20;;;18.40;99.90;;;;;;5015215;28;20042;-61
2022/09/07 06:46:19;;;;;;;19.67;17.63;;;18.40;99.90;;;;;;5030407;28;20470;-61
2022/09/07 06:48:45;;;;;;;21.17;17.92;;;18.40;99.90;;;;;;5028161;28;20446;-61
2022/09/07 06:51:19;;;;;;;18.02;16.23;;;18.40;99.90;;;;;;5030960;28;20052;-61
2022/09/07 06:53:47;;;;;;;18.80;16.02;;;18.40;99.90;;;;;;5032042;28;20037;-61
2022/09/07 06:56:15;;;;;;;16.50;14.90;;;18.40;99.90;;;;;;5021667;28;20045;-62
2022/09/07 06:58:41;;;;;;;18.13;15.95;;;18.40;99.90;;;;;;5013343;28;20041;-61
2022/09/07 07:01:14;;;;;;;16.20;14.50;;;18.40;99.90;;;;;;5009673;28;20367;-61
2022/09/07 07:03:40;;;;;;;19.10;14.77;;;18.50;99.90;;;;;;5015503;28;20144;-61
2022/09/07 07:06:06;;;;;;;15.63;13.93;;;18.50;99.90;;;;;;5006319;28;20339;-61
2022/09/07 07:08:32;;;;;;;15.07;13.48;;;18.50;99.90;;;;;;5008333;28;20485;-61
2022/09/07 07:11:07;;;;;;;15.45;13.43;;;18.60;99.90;;;;;;5006061;28;20078;-61
2022/09/07 07:13:37;;;;;;;15.95;12.93;;;18.70;99.90;;;;;;5013857;28;20041;-61
2022/09/07 07:16:05;;;;;;;14.88;11.45;;;18.80;99.90;;;;;;5013736;28;20060;-62
2022/09/07 07:18:32;;;;;;;12.65;11.30;;;18.80;99.90;;;;;;5009187;28;20045;-62
2022/09/07 07:21:00;;;;;;;12.85;11.20;;;18.70;99.90;;;;;;5013936;28;20069;-62
2022/09/07 07:23:25;;;;;;;12.25;10.90;;;18.70;99.90;;;;;;5013356;28;20440;-62
2022/09/07 07:25:51;;;;;;;12.13;10.60;;;18.90;99.90;;;;;;5010380;28;20109;-62
2022/09/07 07:28:17;;;;;;;12.75;10.70;;;19.00;99.90;;;;;;4998688;28;20054;-61
2022/09/07 07:30:42;;;;;;;13.10;10.15;;;19.20;99.90;;;;;;5014675;28;20126;-62
2022/09/07 07:33:08;;;;;;;11.93;10.73;;;19.30;99.90;;;;;;5012556;28;20389;-62
2022/09/07 07:35:34;;;;;;;13.00;10.98;;;19.40;99.90;;;;;;4990941;28;20086;-62
2022/09/07 07:38:00;;;;;;;12.63;11.05;;;19.50;99.90;;;;;;5011530;28;20072;-63
2022/09/07 07:40:26;;;;;;;13.23;11.65;;;19.50;99.90;;;;;;5012237;28;20103;-63
2022/09/07 07:42:51;;;;;;;13.85;11.23;;;19.60;99.90;;;;;;5010550;28;20034;-62
2022/09/07 07:45:17;;;;;;;13.35;11.05;;;19.60;99.90;;;;;;5006147;28;20482;-62
2022/09/07 07:47:49;;;;;;;13.57;11.80;;;19.50;99.90;;;;;;5001437;28;20034;-63
2022/09/07 07:50:14;;;;;;;13.57;10.82;;;19.70;99.90;;;;;;5010511;28;20042;-62
2022/09/07 07:52:40;;;;;;;13.70;11.27;;;19.70;99.90;;;;;;5002072;28;20455;-62
2022/09/07 07:55:07;;;;;;;12.57;11.27;;;19.80;99.90;;;;;;5010232;28;20049;-62
2022/09/07 07:57:32;;;;;;;13.05;11.25;;;19.80;99.90;;;;;;5002957;28;20092;-63
2022/09/07 07:59:58;;;;;;;14.35;11.35;;;19.80;99.90;;;;;;5003241;28;20359;-63
2022/09/07 08:02:24;;;;;;;14.07;11.13;;;19.80;99.90;;;;;;4992876;28;20080;-62
2022/09/07 08:04:51;;;;;;;13.32;11.48;;;19.70;99.90;;;;;;4999727;28;20034;-62
2022/09/07 08:07:18;;;;;;;14.05;11.55;;;19.70;99.90;;;;;;5009516;28;20045;-63
2022/09/07 08:09:46;;;;;;;13.02;11.65;;;19.90;99.90;;;;;;5012151;28;20169;-62
2022/09/07 08:12:15;;;;;;;14.85;11.25;;;19.90;99.90;;;;;;4992902;28;20046;-63
2022/09/07 08:14:41;;;;;;;14.43;10.38;;;20.00;99.90;;;;;;4999888;28;20075;-63
2022/09/07 08:17:12;;;;;;;13.93;10.77;;;20.00;99.90;;;;;;5009135;28;20410;-62
2022/09/07 08:19:38;;;;;;;12.38;9.88;;;20.10;99.90;;;;;;5009050;28;20038;-63
2022/09/07 08:22:04;;;;;;;12.50;10.43;;;20.20;99.90;;;;;;5012523;28;20041;-63
2022/09/07 08:24:30;;;;;;;10.82;9.60;;;20.30;99.90;;;;;;5012831;28;20030;-63
2022/09/07 08:26:57;;;;;;;12.48;10.65;;;20.40;99.90;;;;;;5012586;28;20394;-63
2022/09/07 08:29:23;;;;;;;13.88;9.77;;;20.50;99.90;;;;;;5019244;28;20042;-62
2022/09/07 08:31:49;;;;;;;10.90;9.70;;;20.50;99.90;;;;;;5005067;28;20042;-63
2022/09/07 08:34:15;;;;;;;11.50;9.98;;;20.60;99.90;;;;;;5006184;28;20038;-64
2022/09/07 08:36:41;;;;;;;13.10;10.35;;;20.70;99.90;;;;;;5012090;28;20124;-62
2022/09/07 08:39:07;;;;;;;12.88;10.15;;;20.90;99.90;;;;;;4998577;28;20125;-62
2022/09/07 08:41:56;;;;;;;11.95;9.60;;;20.90;99.90;;;;;;5009062;28;20033;-62
2022/09/07 08:44:32;;;;;;;11.88;9.65;;;20.90;99.90;;;;;;5003677;28;20038;-62
2022/09/07 08:47:18;;;;;;;10.52;9.43;;;20.70;99.90;;;;;;5009292;28;20030;-63
2022/09/07 08:50:05;;;;;;;10.43;8.55;;;20.70;99.90;;;;;;5001101;28;20145;-62
2022/09/07 08:53:11;;;;;;;10.73;8.10;;;20.80;99.90;;;;;;5008939;28;20054;-62
2022/09/07 08:55:56;;;;;;;10.10;7.65;;;20.80;99.90;;;;;;4991968;28;20080;-62
2022/09/07 08:58:26;;;;;;;11.50;8.80;;;20.80;99.90;;;;;;4993289;28;20035;-62
2022/09/07 09:00:52;;;;;;;11.13;8.27;;;20.80;99.90;;;;;;5003211;28;20117;-63
2022/09/07 09:03:25;;;;;;;10.68;7.93;;;20.80;99.90;;;;;;5009278;28;20423;-62
2022/09/07 09:06:21;;;;;;;11.85;8.38;;;20.90;99.90;;;;;;5019362;28;20105;-63
2022/09/07 09:09:23;;;;;;;9.77;8.15;;;20.90;99.90;;;;;;5002887;28;20129;-62
2022/09/07 09:12:17;;;;;;;9.68;8.20;;;21.00;99.90;;;;;;5004026;28;20046;-62
2022/09/07 09:15:08;;;;;;;9.38;7.13;;;21.10;99.90;;;;;;5011948;28;20466;-62
2022/09/07 09:17:43;;;;;;;8.38;6.45;;;21.20;99.90;;;;;;5012656;28;20034;-62
2022/09/07 09:20:20;;;;;;;10.35;6.60;;;21.30;99.90;;;;;;5004812;28;20046;-63
2022/09/07 09:22:47;;;;;;;8.57;6.45;;;21.50;99.90;;;;;;5016617;28;20050;-62
2022/09/07 09:25:51;;;;;;;9.95;7.00;;;21.40;99.90;;;;;;5009968;28;20045;-63
2022/09/07 09:28:17;;;;;;;8.60;6.65;;;21.30;99.90;;;;;;4979368;28;20135;-62
2022/09/07 09:30:43;;;;;;;9.52;7.05;;;21.20;99.90;;;;;;5010718;28;20065;-63
2022/09/07 09:33:24;;;;;;;10.43;7.15;;;21.10;99.90;;;;;;5011439;28;20058;-63
2022/09/07 09:35:57;;;;;;;8.35;7.30;;;21.10;99.90;;;;;;5005561;28;20425;-62
2022/09/07 09:38:36;;;;;;;10.45;6.82;;;21.00;99.90;;;;;;5006228;28;20471;-63
2022/09/07 09:41:12;;;;;;;9.60;7.18;;;20.90;99.90;;;;;;5011565;28;20038;-63
2022/09/07 09:43:49;;;;;;;8.73;6.28;;;20.80;99.90;;;;;;5002159;28;20047;-62
2022/09/07 09:46:24;;;;;;;8.27;6.60;;;20.80;99.90;;;;;;5006010;28;20105;-62
2022/09/07 09:48:55;;;;;;;7.53;5.53;;;20.90;99.90;;;;;;5008257;28;20042;-62
2022/09/07 09:51:22;;;;;;;10.27;5.63;;;21.00;99.90;;;;;;5008077;28;20175;-63
2022/09/07 09:54:23;;;;;;;7.22;5.32;;;21.10;99.90;;;;;;5011564;28;20053;-62
2022/09/07 09:56:48;;;;;;;8.70;4.72;;;21.20;99.90;;;;;;4991880;28;20108;-64
2022/09/07 09:59:17;;;;;;;7.47;5.10;;;21.10;99.90;;;;;;5005673;28;20041;-63
2022/09/07 10:01:47;;;;;;;8.23;5.10;;;21.20;99.90;;;;;;5007616;28;20045;-62
2022/09/07 10:04:32;;;;;;;7.32;4.97;;;21.30;99.90;;;;;;5000882;28;20038;-63
2022/09/07 10:07:18;;;;;;;8.45;5.40;;;21.50;99.90;;;;;;5009615;28;20033;-63
2022/09/07 10:09:49;;;;;;;6.30;4.70;;;22.00;99.90;;;;;;5005730;28;20077;-63
2022/09/07 10:12:30;;;;;;;6.75;4.68;;;22.00;99.90;;;;;;4994112;28;20061;-63
2022/09/07 10:14:57;;;;;;;5.65;4.57;;;22.10;99.90;;;;;;5010332;28;20054;-64
2022/09/07 10:17:37;;;;;;;6.88;5.05;;;22.10;99.90;;;;;;5002625;28;20053;-64
2022/09/07 10:20:48;;;;;;;7.95;4.30;;;22.30;99.90;;;;;;5008899;28;20056;-64
2022/09/07 10:23:22;;;;;;;6.45;4.43;;;22.40;99.90;;;;;;5009959;28;20112;-63
2022/09/07 10:25:48;;;;;;;7.85;4.88;;;22.50;99.90;;;;;;5015551;28;20030;-64
2022/09/07 10:28:22;;;;;;;8.25;4.20;;;22.60;99.90;;;;;;4988219;28;20467;-64
2022/09/07 10:30:59;;;;;;;5.68;4.05;;;22.80;99.90;;;;;;4980079;28;20041;-63
2022/09/07 10:33:49;;;;;;;5.30;3.67;;;22.90;99.90;;;;;;5011211;28;20442;-64
2022/09/07 10:36:52;;;;;;;7.68;4.90;;;23.10;99.90;;;;;;5010371;28;20045;-65
2022/09/07 10:39:24;;;;;;;7.38;5.07;;;23.20;99.90;;;;;;5014541;28;20371;-64
2022/09/07 10:41:56;;;;;;;5.32;3.90;;;23.20;99.90;;;;;;5016081;28;20034;-64
2022/09/07 10:44:49;;;;;;;5.43;4.30;;;23.30;99.90;;;;;;5016232;28;20103;-63
2022/09/07 10:47:30;;;;;;;7.20;3.73;;;23.30;99.90;;;;;;5015166;28;20044;-63
2022/09/07 10:49:59;;;;;;;7.05;4.13;;;23.40;99.90;;;;;;5014856;28;20049;-63
2022/09/07 10:52:27;;;;;;;5.88;4.43;;;23.30;99.90;;;;;;5007616;28;20038;-63
2022/09/07 10:55:05;;;;;;;6.95;4.80;;;23.20;99.90;;;;;;5029789;28;20030;-64
2022/09/07 10:57:57;;;;;;;5.32;3.88;;;23.40;99.90;;;;;;5015830;28;20069;-63
2022/09/07 11:00:24;;;;;;;7.13;4.78;;;23.40;99.90;;;;;;5025286;28;20343;-64
2022/09/07 11:03:24;;;;;;;6.35;4.60;;;23.40;99.90;;;;;;5029283;28;20036;-65
2022/09/07 11:06:02;;;;;;;5.18;4.10;;;23.40;99.90;;;;;;5001901;28;20053;-64
2022/09/07 11:08:44;;;;;;;8.63;4.25;;;23.50;99.90;;;;;;5022919;28;20112;-63
2022/09/07 11:11:28;;;;;;;5.45;3.80;;;23.60;99.90;;;;;;5032630;28;20037;-64
2022/09/07 11:13:59;;;;;;;5.05;3.35;;;23.70;99.90;;;;;;5014829;28;20042;-64
2022/09/07 11:16:28;;;;;;;7.65;4.25;;;23.50;99.90;;;;;;5009618;28;20049;-64
2022/09/07 11:19:00;;;;;;;5.28;4.15;;;23.50;99.90;;;;;;5009289;28;20121;-64
2022/09/07 11:21:34;;;;;;;5.13;3.50;;;23.50;99.90;;;;;;5021741;28;20042;-64
2022/09/07 11:24:11;;;;;;;6.82;4.20;;;23.70;99.90;;;;;;5024287;28;20065;-64
2022/09/07 11:26:56;;;;;;;6.57;3.83;;;23.70;99.90;;;;;;5025197;28;20504;-64
2022/09/07 11:29:50;;;;;;;5.07;3.65;;;23.80;99.90;;;;;;5021163;28;20041;-64
2022/09/07 11:32:21;;;;;;;6.47;3.63;;;23.80;99.90;;;;;;5019634;28;20092;-64
2022/09/07 11:34:54;;;;;;;5.75;3.53;;;23.70;99.90;;;;;;5015119;28;20575;-64
2022/09/07 11:37:42;;;;;;;6.53;3.90;;;23.70;99.90;;;;;;5020003;28;20029;-64
2022/09/07 11:40:56;;;;;;;5.25;3.50;;;23.80;99.90;;;;;;5008548;28;20053;-64
2022/09/07 11:43:29;;;;;;;6.53;3.80;;;23.90;99.90;;;;;;4989998;28;20068;-64
2022/09/07 11:46:03;;;;;;;5.57;3.90;;;23.90;99.90;;;;;;5014109;28;20097;-64
2022/09/07 11:48:38;;;;;;;6.63;3.35;;;24.00;99.90;;;;;;5016285;28;20434;-63
2022/09/07 11:51:13;;;;;;;5.00;3.13;;;23.90;99.90;;;;;;5006951;28;20359;-64
2022/09/07 11:53:45;;;;;;;4.70;3.38;;;23.80;99.90;;;;;;5008375;28;20077;-65
2022/09/07 11:56:21;;;;;;;6.57;3.78;;;23.90;99.90;;;;;;5026893;28;20100;-64
2022/09/07 11:58:47;;;;;;;5.13;3.47;;;24.00;99.90;;;;;;5015603;28;20080;-65
2022/09/07 12:01:38;;;;;;;5.05;2.70;;;24.00;99.90;;;;;;5015279;28;20042;-65
2022/09/07 12:04:17;;;;;;;5.05;2.80;;;24.10;99.90;;;;;;5023824;28;20069;-64
2022/09/07 12:07:01;;;;;;;5.70;2.80;;;24.10;99.90;;;;;;5010799;28;20048;-65
2022/09/07 12:10:05;;;;;;;6.25;3.20;;;24.10;99.90;;;;;;5013513;28;20484;-65
2022/09/07 12:12:34;;;;;;;4.50;2.90;;;24.00;99.90;;;;;;5015717;28;20367;-65
2022/09/07 12:15:32;;;;;;;5.68;3.03;;;23.90;99.90;;;;;;5019653;28;20291;-65
2022/09/07 12:18:34;;;;;;;6.10;2.90;;;23.90;99.90;;;;;;5014247;28;20038;-65
2022/09/07 12:20:59;;;;;;;4.53;2.60;;;23.90;99.90;;;;;;5015292;28;20046;-64
2022/09/07 12:23:28;;;;;;;4.07;2.65;;;23.80;99.90;;;;;;5000357;28;20039;-65
2022/09/07 12:26:32;;;;;;;5.45;3.38;;;24.00;99.90;;;;;;5002264;28;20045;-65
2022/09/07 12:28:58;;;;;;;4.43;3.35;;;24.10;99.90;;;;;;5001030;28;20374;-65
2022/09/07 12:31:42;;;;;;;6.63;3.13;;;24.00;99.90;;;;;;5027875;28;20121;-65
2022/09/07 12:34:29;;;;;;;5.45;3.15;;;24.10;99.90;;;;;;4997122;28;20439;-65
2022/09/07 12:37:21;;;;;;;5.18;3.05;;;24.20;99.90;;;;;;5015105;28;20120;-64
2022/09/07 12:39:47;;;;;;;5.00;3.17;;;24.20;99.90;;;;;;4989452;28;20482;-65
2022/09/07 12:42:24;;;;;;;4.15;3.03;;;24.20;99.90;;;;;;5013848;28;20034;-64
2022/09/07 12:45:28;;;;;;;5.43;2.97;;;24.30;99.90;;;;;;5012817;28;20108;-65
2022/09/07 12:47:59;;;;;;;6.93;3.60;;;24.30;99.90;;;;;;4992603;28;20074;-64
2022/09/07 12:50:38;;;;;;;5.60;3.42;;;24.00;99.90;;;;;;5014151;28;20042;-64
2022/09/07 12:53:27;;;;;;;7.50;3.80;;;23.90;99.90;;;;;;5014548;28;20045;-65
2022/09/07 12:56:18;;;;;;;5.60;4.15;;;23.80;99.90;;;;;;4997046;28;20120;-64
2022/09/07 12:59:21;;;;;;;4.85;3.70;;;23.70;99.90;;;;;;4993999;28;20109;-63
2022/09/07 13:02:11;;;;;;;5.97;3.53;;;23.60;99.90;;;;;;5012828;28;20148;-64
2022/09/07 13:05:26;;;;;;;6.70;4.07;;;23.70;99.90;;;;;;4996134;28;20056;-65
2022/09/07 13:08:13;;;;;;;4.93;3.47;;;23.90;99.90;;;;;;4970138;28;20489;-65
2022/09/07 13:10:40;;;;;;;6.65;3.63;;;24.10;99.90;;;;;;5013565;28;20146;-64